Lake Almanor, California
Current Conditions -  °F | °C
As of 10:52 PM on Wednesday 22 Oct 2014 (Local Time) from KBLU Reporting Station
Clear Clear  
Wind Chill: 50°   Ceiling: Unl
Heat Index: 50°   Visibility: 10mi
Dew Point: 31°   Wind: 5mph
Humidity: 48%   Direction: 120°ESE
Pressure: 30.18"   Gusts: NA
Location:  39.56°N, 120.93°W
Report Text: KBLU 230552Z AUTO 12004KT 10SM CLR 10/M01 A3018 RMK AO2 SLP168 T01001006 10133 20094 51002 $
Loading
Personal Weather Stations






























Interactive Weather Map
Tropical Storm Tracking
New forecast layout! Learn more

10-Day Weather Forecast

Advertisements
Track Severe Weather on mobile